Pagrindinis puslapis
METAR-TAF:

METAR-TAF

Oro uostai :

King Cove, Aliaska, Jungtinės Amerikos Valstijos

platuma: 55-06-59N, ilguma: 162-15-58W, Aukštis: 47 m

Dabartinis oras

Ataskaita buvo paskelbta 19 minutes, ne 03:56 UTC
Vėjas 25 kt iš Vakarų su gūsio iki 35 kt
Temperatūra 11°C
Drėgmė 82%
Slėgis 1012 hPa
Matomumas: 9.7 km
Apsiniaukę ne aukštis 1600 ft
rūkana

METAR: PAVC 160356Z AUTO 26025G35KT 6SM BR OVC016 11/08 A2987 RMK AO2 PK WND 26045/0314 RAE45 SLP121 P0000 T01060083

Laikas: 20:15 (04:15 UTC)


TAF: trūkstamas

Orai ataskaitas ir orų prognozės (METAR, TAF).

turimą stotys yra geltonos ir raudonos taškus žemėlapyje.

Perkelti pele per norėdami pamatyti stoties vardą.

Tada spustelėkite, norėdami matyti oro stebėjimo ir prognozės.

Norėdami pakeisti žemėlapį: spustelėkite ant žalios mygtukų su juodo kryžiaus žemyn,; žalią mygtuką su brūkšneliu, jei norite nutolinti; arba žalių rodyklių gretimoms žemėlapius.


METAR-TAF: